createdAt,value
2022-12-12T00:00:35.582Z,24.52
2022-12-12T00:03:09.898Z,24.52
2022-12-12T00:05:41.578Z,24.50
2022-12-12T00:08:14.829Z,24.48
2022-12-12T00:10:48.026Z,24.46
2022-12-12T00:13:21.285Z,24.44
2022-12-12T00:15:52.402Z,24.43
2022-12-12T00:18:23.374Z,24.41
2022-12-12T00:20:56.072Z,24.39
2022-12-12T00:23:27.587Z,24.38
2022-12-12T00:26:02.656Z,24.37
2022-12-12T00:28:35.492Z,24.34
2022-12-12T00:31:08.503Z,24.31
2022-12-12T00:33:39.042Z,24.29
2022-12-12T00:36:11.197Z,24.27
2022-12-12T00:38:42.430Z,24.25
2022-12-12T00:41:14.444Z,24.26
2022-12-12T00:43:47.006Z,24.22
2022-12-12T00:46:19.787Z,24.21
2022-12-12T00:48:51.018Z,24.18
2022-12-12T00:51:24.227Z,24.17
2022-12-12T00:53:55.091Z,24.17
2022-12-12T00:56:27.890Z,24.17
2022-12-12T00:59:00.497Z,24.17
2022-12-12T01:01:33.457Z,24.17
2022-12-12T01:04:05.299Z,24.16
2022-12-12T01:06:37.185Z,24.17
2022-12-12T01:09:07.599Z,24.16
2022-12-12T01:11:38.091Z,24.15
2022-12-12T01:14:10.000Z,24.14
2022-12-12T01:16:42.948Z,24.13
2022-12-12T01:19:13.219Z,24.11
2022-12-12T01:21:44.996Z,24.11
2022-12-12T01:24:18.339Z,24.10
2022-12-12T01:26:52.263Z,24.09
2022-12-12T01:29:25.286Z,24.10
2022-12-12T01:31:58.783Z,24.10
2022-12-12T01:34:30.587Z,24.08
2022-12-12T01:37:01.583Z,24.05
2022-12-12T01:39:32.200Z,24.03
2022-12-12T01:42:02.619Z,24.02
2022-12-12T01:44:48.303Z,24.00
2022-12-12T01:47:22.340Z,23.99
2022-12-12T01:49:59.397Z,23.99
2022-12-12T01:52:43.343Z,23.99
2022-12-12T01:55:20.384Z,23.98
2022-12-12T01:57:56.715Z,23.97
2022-12-12T02:00:30.584Z,23.95
2022-12-12T02:03:02.338Z,23.94
2022-12-12T02:05:38.048Z,23.95
2022-12-12T02:08:12.014Z,23.94
2022-12-12T02:10:43.148Z,23.91
2022-12-12T02:13:20.649Z,23.87
2022-12-12T02:16:10.938Z,23.84
2022-12-12T02:18:55.872Z,23.81
2022-12-12T02:21:37.682Z,23.81
2022-12-12T02:25:03.069Z,23.79
2022-12-12T02:28:22.909Z,23.78
2022-12-12T02:31:18.496Z,23.78
2022-12-12T02:34:02.883Z,23.80
2022-12-12T02:36:45.995Z,23.81
2022-12-12T02:39:28.985Z,23.83
2022-12-12T02:42:13.608Z,23.83
2022-12-12T02:44:57.917Z,23.84
2022-12-12T02:47:37.284Z,23.85
2022-12-12T02:50:13.286Z,23.86
2022-12-12T02:52:48.937Z,23.88
2022-12-12T02:55:21.530Z,23.89
2022-12-12T02:57:54.606Z,23.88
2022-12-12T03:00:25.645Z,23.89
2022-12-12T03:03:37.067Z,23.89
2022-12-12T03:07:04.018Z,23.88
2022-12-12T03:09:53.758Z,23.88
2022-12-12T03:12:43.012Z,23.88
2022-12-12T03:15:24.809Z,23.89
2022-12-12T03:18:12.873Z,23.89
2022-12-12T03:20:55.924Z,23.88
2022-12-12T03:23:32.530Z,23.84
2022-12-12T03:26:11.418Z,23.84
2022-12-12T03:28:49.337Z,23.80
2022-12-12T03:31:28.621Z,23.79
2022-12-12T03:34:09.155Z,23.77
2022-12-12T03:36:47.068Z,23.75
2022-12-12T03:39:23.523Z,23.72
2022-12-12T03:42:03.097Z,23.70
2022-12-12T03:44:41.866Z,23.68
2022-12-12T03:47:18.949Z,23.66
2022-12-12T03:49:59.604Z,23.63
2022-12-12T03:52:37.997Z,23.59
2022-12-12T03:55:16.742Z,23.56
2022-12-12T03:57:56.247Z,23.53
2022-12-12T04:00:26.821Z,23.52
2022-12-12T04:03:08.717Z,23.53
2022-12-12T04:06:02.565Z,23.52
2022-12-12T04:08:33.332Z,23.52
2022-12-12T04:11:34.921Z,23.53
2022-12-12T04:14:32.942Z,23.51
2022-12-12T04:17:08.254Z,23.51
2022-12-12T04:20:05.703Z,23.50
2022-12-12T04:23:18.287Z,23.48
2022-12-12T04:26:22.381Z,23.47
2022-12-12T04:29:10.285Z,23.45
2022-12-12T04:31:50.277Z,23.46
2022-12-12T04:34:32.691Z,23.48
2022-12-12T04:37:06.248Z,23.49
2022-12-12T04:39:42.827Z,23.50
2022-12-12T04:42:20.096Z,23.50
2022-12-12T04:44:55.432Z,23.50
2022-12-12T04:47:29.520Z,23.50
2022-12-12T04:50:03.790Z,23.50
2022-12-12T04:52:36.899Z,23.49
2022-12-12T04:55:15.995Z,23.48
2022-12-12T04:57:51.905Z,23.47
2022-12-12T05:00:24.401Z,23.46
2022-12-12T05:03:04.793Z,23.44
2022-12-12T05:05:43.836Z,23.45
2022-12-12T05:08:22.839Z,23.46
2022-12-12T05:10:59.937Z,23.47
2022-12-12T05:13:35.113Z,23.48
2022-12-12T05:16:13.647Z,23.51
2022-12-12T05:18:45.554Z,23.52
2022-12-12T05:21:18.429Z,23.55
2022-12-12T05:23:49.222Z,23.58
2022-12-12T05:26:27.285Z,23.62
2022-12-12T05:29:05.277Z,23.65
2022-12-12T05:31:37.793Z,23.67
2022-12-12T05:34:08.687Z,23.70
2022-12-12T05:36:42.271Z,23.72
2022-12-12T05:39:13.018Z,23.74
2022-12-12T05:41:47.041Z,23.76
2022-12-12T05:44:18.096Z,23.77
2022-12-12T05:46:48.707Z,23.80
2022-12-12T05:49:20.047Z,23.83
2022-12-12T05:51:50.823Z,23.86
2022-12-12T05:54:21.987Z,23.90
2022-12-12T05:56:55.226Z,23.93
2022-12-12T05:59:26.107Z,23.97
2022-12-12T06:01:56.619Z,24.01
2022-12-12T06:04:27.850Z,24.05
2022-12-12T06:07:01.148Z,24.12
2022-12-12T06:09:32.334Z,24.20
2022-12-12T06:12:05.386Z,24.35
2022-12-12T06:14:36.658Z,24.50
2022-12-12T06:17:08.067Z,24.70
2022-12-12T06:19:39.555Z,24.95
2022-12-12T06:22:10.806Z,25.17
2022-12-12T06:24:41.186Z,25.43
2022-12-12T06:27:20.157Z,25.67
2022-12-12T06:29:51.434Z,25.93
2022-12-12T06:32:22.646Z,26.18
2022-12-12T06:34:54.193Z,26.44
2022-12-12T06:37:53.092Z,26.70
2022-12-12T06:40:27.689Z,26.95
2022-12-12T06:43:00.715Z,27.18
2022-12-12T06:45:30.736Z,27.41
2022-12-12T06:48:01.688Z,27.63
2022-12-12T06:50:31.690Z,27.86
2022-12-12T06:53:02.805Z,28.05
2022-12-12T06:55:33.036Z,28.22
2022-12-12T06:58:12.989Z,28.37
2022-12-12T07:00:45.166Z,28.52
2022-12-12T07:03:16.793Z,28.65
2022-12-12T07:05:48.956Z,28.80
2022-12-12T07:08:19.801Z,28.94
2022-12-12T07:10:51.131Z,29.07
2022-12-12T07:13:23.884Z,29.20
2022-12-12T07:15:59.211Z,29.35
2022-12-12T07:18:30.661Z,29.49
2022-12-12T07:21:00.496Z,29.64
2022-12-12T07:23:31.835Z,29.81
2022-12-12T07:26:10.131Z,29.99
2022-12-12T07:28:42.217Z,30.14
2022-12-12T07:31:18.083Z,30.26
2022-12-12T07:33:53.019Z,30.37
2022-12-12T07:36:23.595Z,30.46
2022-12-12T07:38:54.738Z,30.54
2022-12-12T07:41:28.710Z,30.66
2022-12-12T07:44:03.330Z,30.75
2022-12-12T07:46:34.440Z,30.84
2022-12-12T07:49:05.757Z,30.90
2022-12-12T07:51:42.891Z,31.01
2022-12-12T07:54:16.636Z,31.14
2022-12-12T07:56:47.452Z,31.28
2022-12-12T07:59:19.904Z,31.41
2022-12-12T08:01:50.224Z,31.55
2022-12-12T08:04:21.673Z,31.68
2022-12-12T08:07:00.657Z,31.86
2022-12-12T08:09:34.728Z,32.08
2022-12-12T08:12:06.435Z,32.32
2022-12-12T08:14:41.123Z,32.53
2022-12-12T08:17:12.634Z,32.77
2022-12-12T08:19:45.587Z,33.01
2022-12-12T08:22:31.214Z,33.22
2022-12-12T08:25:04.842Z,33.41
2022-12-12T08:27:37.952Z,33.64
2022-12-12T08:30:13.986Z,33.94
2022-12-12T08:32:44.311Z,34.21
2022-12-12T08:35:16.177Z,34.55
2022-12-12T08:37:47.913Z,34.89
2022-12-12T08:40:20.059Z,35.12
2022-12-12T08:43:02.479Z,35.22
2022-12-12T08:45:36.131Z,35.19
2022-12-12T08:48:09.679Z,35.11
2022-12-12T08:50:42.451Z,34.94
2022-12-12T08:53:24.192Z,34.71
2022-12-12T08:55:55.744Z,34.43
2022-12-12T08:58:25.685Z,34.19
2022-12-12T09:00:58.326Z,33.96
2022-12-12T09:03:29.688Z,33.71
2022-12-12T09:06:01.046Z,33.50
2022-12-12T09:08:31.151Z,33.31
2022-12-12T09:11:01.191Z,33.09
2022-12-12T09:13:31.497Z,32.86
2022-12-12T09:16:05.856Z,32.63
2022-12-12T09:18:47.777Z,32.44
2022-12-12T09:21:19.804Z,32.30
2022-12-12T09:23:50.010Z,32.19
2022-12-12T09:26:20.622Z,32.13
2022-12-12T09:28:54.235Z,32.14
2022-12-12T09:31:26.742Z,32.17
2022-12-12T09:34:02.338Z,32.24
2022-12-12T09:36:44.146Z,32.28
2022-12-12T09:39:14.933Z,32.27
2022-12-12T09:41:45.424Z,32.23
2022-12-12T09:44:22.911Z,32.18
2022-12-12T09:46:58.984Z,32.10
2022-12-12T09:49:43.978Z,32.02
2022-12-12T09:52:18.155Z,31.91
2022-12-12T09:54:48.437Z,31.82
2022-12-12T09:57:30.004Z,31.72
2022-12-12T10:00:09.032Z,31.60
2022-12-12T10:03:12.353Z,31.45
2022-12-12T10:06:13.501Z,31.33
2022-12-12T10:08:59.592Z,31.18
2022-12-12T10:11:54.892Z,31.10
2022-12-12T10:14:35.488Z,30.97
2022-12-12T10:17:24.215Z,30.87
2022-12-12T10:20:02.610Z,30.78
2022-12-12T10:22:43.688Z,30.70
2022-12-12T10:25:25.452Z,30.61
2022-12-12T10:28:04.810Z,30.52
2022-12-12T10:30:53.697Z,30.44
2022-12-12T10:33:39.685Z,30.35
2022-12-12T10:36:21.571Z,30.25
2022-12-12T10:39:14.784Z,30.18
2022-12-12T10:41:54.624Z,30.12
2022-12-12T10:44:47.857Z,30.06
2022-12-12T10:47:18.591Z,29.98
2022-12-12T10:50:15.970Z,29.93
2022-12-12T10:52:47.337Z,29.87
2022-12-12T10:55:32.602Z,29.83
2022-12-12T11:01:45.000Z,29.72
2022-12-12T11:04:17.468Z,29.66
2022-12-12T11:06:52.709Z,29.62
2022-12-12T11:09:26.084Z,29.58
2022-12-12T11:12:06.215Z,29.54
2022-12-12T11:14:39.728Z,29.49
2022-12-12T11:17:25.726Z,29.44
2022-12-12T11:19:58.445Z,29.40
2022-12-12T11:22:41.405Z,29.37
2022-12-12T11:25:28.993Z,29.31
2022-12-12T11:28:06.820Z,29.27
2022-12-12T11:30:43.253Z,29.24
2022-12-12T11:33:25.309Z,29.21
2022-12-12T11:35:58.232Z,29.17
2022-12-12T11:38:39.519Z,29.13
2022-12-12T11:41:13.525Z,29.10
2022-12-12T11:44:03.505Z,29.08
2022-12-12T11:46:37.198Z,29.05
2022-12-12T11:49:21.465Z,29.03
2022-12-12T11:52:00.117Z,28.99
2022-12-12T11:54:33.887Z,28.97
2022-12-12T11:57:13.105Z,28.94
2022-12-12T12:00:11.110Z,28.92
2022-12-12T12:03:23.879Z,28.87
2022-12-12T12:06:30.528Z,28.84
2022-12-12T12:09:32.035Z,28.81
2022-12-12T12:12:14.926Z,28.78
2022-12-12T12:15:20.450Z,28.76
2022-12-12T12:18:31.672Z,28.71
2022-12-12T12:21:32.186Z,28.67
2022-12-12T12:24:46.704Z,28.65
2022-12-12T12:27:29.724Z,28.62
2022-12-12T12:30:21.595Z,28.60
2022-12-12T12:33:28.933Z,28.59
2022-12-12T12:36:21.331Z,28.57
2022-12-12T12:39:22.885Z,28.54
2022-12-12T12:42:13.207Z,28.52
2022-12-12T12:44:54.460Z,28.51
2022-12-12T12:47:39.572Z,28.49
2022-12-12T12:50:21.457Z,28.48
2022-12-12T12:53:02.225Z,28.47
2022-12-12T12:55:42.775Z,28.45
2022-12-12T12:58:22.576Z,28.44
2022-12-12T13:01:02.931Z,28.43
2022-12-12T13:03:44.993Z,28.42
2022-12-12T13:06:24.941Z,28.40
2022-12-12T13:09:07.619Z,28.37
2022-12-12T13:11:46.877Z,28.36
2022-12-12T13:14:30.430Z,28.34
2022-12-12T13:17:08.176Z,28.33
2022-12-12T13:19:44.952Z,28.32
2022-12-12T13:22:43.921Z,28.31
2022-12-12T13:25:49.823Z,28.28
2022-12-12T13:28:29.974Z,28.24
2022-12-12T13:31:43.195Z,28.23
2022-12-12T13:34:20.331Z,28.20
2022-12-12T13:36:58.959Z,28.20
2022-12-12T13:39:37.060Z,28.17
2022-12-12T13:42:10.771Z,28.16
2022-12-12T13:44:46.268Z,28.15
2022-12-12T13:48:07.463Z,28.09
2022-12-12T13:50:37.508Z,28.07
2022-12-12T13:53:23.036Z,28.06
2022-12-12T13:56:36.967Z,28.03
2022-12-12T13:59:29.804Z,28.02
2022-12-12T14:02:03.086Z,28.00
2022-12-12T14:04:36.017Z,27.99
2022-12-12T14:07:16.980Z,27.98
2022-12-12T14:09:51.588Z,27.96
2022-12-12T14:12:31.406Z,27.94
2022-12-12T14:15:07.297Z,27.93
2022-12-12T14:17:43.087Z,27.91
2022-12-12T14:20:33.815Z,27.90
2022-12-12T14:23:30.030Z,27.88
2022-12-12T14:26:02.670Z,27.85
2022-12-12T14:28:36.387Z,27.84
2022-12-12T14:31:30.590Z,27.83
2022-12-12T14:34:32.327Z,27.80
2022-12-12T14:37:30.674Z,27.77
2022-12-12T14:40:15.601Z,27.75
2022-12-12T14:43:15.363Z,27.74
2022-12-12T14:46:00.477Z,27.71
2022-12-12T14:48:35.553Z,27.69
2022-12-12T14:51:16.824Z,27.68
2022-12-12T14:54:34.897Z,27.66
2022-12-12T14:57:13.069Z,27.62
2022-12-12T15:00:26.626Z,27.61
2022-12-12T15:03:31.877Z,27.56
2022-12-12T15:06:41.045Z,27.52
2022-12-12T15:09:25.412Z,27.48
2022-12-12T15:11:58.321Z,27.44
2022-12-12T15:14:29.846Z,27.41
2022-12-12T15:17:08.010Z,27.39
2022-12-12T15:19:49.239Z,27.35
2022-12-12T15:22:27.519Z,27.33
2022-12-12T15:24:59.891Z,27.31
2022-12-12T15:27:39.986Z,27.28
2022-12-12T15:30:23.308Z,27.25
2022-12-12T15:32:54.243Z,27.21
2022-12-12T15:35:27.115Z,27.20
2022-12-12T15:38:03.520Z,27.17
2022-12-12T15:40:36.195Z,27.14
2022-12-12T15:43:14.969Z,27.13
2022-12-12T15:45:51.888Z,27.11
2022-12-12T15:48:25.962Z,27.08
2022-12-12T15:51:01.374Z,27.06
2022-12-12T15:53:50.445Z,27.03
2022-12-12T15:56:52.220Z,26.99
2022-12-12T15:59:34.732Z,26.97
2022-12-12T16:02:28.808Z,26.94
2022-12-12T16:05:10.238Z,26.90
2022-12-12T16:07:41.463Z,26.88
2022-12-12T16:10:26.997Z,26.85
2022-12-12T16:13:05.412Z,26.82
2022-12-12T16:15:38.922Z,26.80
2022-12-12T16:18:20.316Z,26.77
2022-12-12T16:20:53.754Z,26.75
2022-12-12T16:23:35.406Z,26.71
2022-12-12T16:26:08.047Z,26.70
2022-12-12T16:28:38.377Z,26.68
2022-12-12T16:31:18.774Z,26.66
2022-12-12T16:33:48.789Z,26.64
2022-12-12T16:36:20.087Z,26.62
2022-12-12T16:38:50.853Z,26.61
2022-12-12T16:41:23.983Z,26.59
2022-12-12T16:43:57.270Z,26.56
2022-12-12T16:46:28.448Z,26.54
2022-12-12T16:49:05.151Z,26.51
2022-12-12T16:51:38.429Z,26.48
2022-12-12T16:54:09.226Z,26.45
2022-12-12T16:56:53.491Z,26.45
2022-12-12T16:59:24.288Z,26.42
2022-12-12T17:01:54.755Z,26.40
2022-12-12T17:04:31.077Z,26.40
2022-12-12T17:07:01.772Z,26.37
2022-12-12T17:09:31.730Z,26.35
2022-12-12T17:12:03.411Z,26.35
2022-12-12T17:14:33.463Z,26.33
2022-12-12T17:17:06.820Z,26.33
2022-12-12T17:19:38.103Z,26.31
2022-12-12T17:22:09.910Z,26.29
2022-12-12T17:24:43.070Z,26.29
2022-12-12T17:27:14.687Z,26.26
2022-12-12T17:29:46.041Z,26.24
2022-12-12T17:32:24.236Z,26.22
2022-12-12T17:34:55.925Z,26.20
2022-12-12T17:37:28.023Z,26.18
2022-12-12T17:39:58.429Z,26.16
2022-12-12T17:42:32.559Z,26.15
2022-12-12T17:45:03.190Z,26.12
2022-12-12T17:47:33.278Z,26.11
2022-12-12T17:50:03.387Z,26.10
2022-12-12T17:52:33.587Z,26.08
2022-12-12T17:55:53.188Z,26.07
2022-12-12T17:57:57.233Z,26.04
2022-12-12T18:00:28.060Z,26.02
2022-12-12T18:03:01.012Z,26.00
2022-12-12T18:05:32.447Z,25.99
2022-12-12T18:08:05.400Z,25.98
2022-12-12T18:10:39.581Z,25.96
2022-12-12T18:13:14.226Z,25.93
2022-12-12T18:15:44.932Z,25.92
2022-12-12T18:18:14.971Z,25.91
2022-12-12T18:21:12.898Z,25.90
2022-12-12T18:23:47.216Z,25.87
2022-12-12T18:26:29.966Z,25.86
2022-12-12T18:29:04.556Z,25.83
2022-12-12T18:31:35.694Z,25.80
2022-12-12T18:34:07.559Z,25.79
2022-12-12T18:39:22.574Z,25.75
2022-12-12T18:41:52.861Z,25.74
2022-12-12T18:44:24.763Z,25.74
2022-12-12T18:46:56.362Z,25.73
2022-12-12T18:49:26.475Z,25.74
2022-12-12T18:52:00.563Z,25.72
2022-12-12T18:54:32.137Z,25.72
2022-12-12T18:57:02.297Z,25.71
2022-12-12T18:59:34.107Z,25.69
2022-12-12T19:02:15.808Z,25.69
2022-12-12T19:04:47.454Z,25.67
2022-12-12T19:07:18.918Z,25.66
2022-12-12T19:09:48.923Z,25.65
2022-12-12T19:12:19.453Z,25.64
2022-12-12T19:15:16.735Z,25.64
2022-12-12T19:17:58.138Z,25.62
2022-12-12T19:20:32.880Z,25.62
2022-12-12T19:23:02.883Z,25.60
2022-12-12T19:25:42.553Z,25.59
2022-12-12T19:28:17.335Z,25.58
2022-12-12T19:30:49.268Z,25.56
2022-12-12T19:33:19.346Z,25.55
2022-12-12T19:35:49.432Z,25.54
2022-12-12T19:38:24.312Z,25.53
2022-12-12T19:40:55.460Z,25.52
2022-12-12T19:43:28.064Z,25.50
2022-12-12T19:46:08.411Z,25.50
2022-12-12T19:48:40.373Z,25.49
2022-12-12T19:51:38.836Z,25.48
2022-12-12T19:54:23.130Z,25.47
2022-12-12T19:56:55.244Z,25.44
2022-12-12T19:59:26.467Z,25.44
2022-12-12T20:02:01.423Z,25.42
2022-12-12T20:04:31.804Z,25.41
2022-12-12T20:07:02.067Z,25.40
2022-12-12T20:09:36.767Z,25.39
2022-12-12T20:12:08.343Z,25.38
2022-12-12T20:14:39.913Z,25.37
2022-12-12T20:17:17.660Z,25.37
2022-12-12T20:19:49.835Z,25.34
2022-12-12T20:22:21.093Z,25.32
2022-12-12T20:24:55.571Z,25.30
2022-12-12T20:27:30.482Z,25.29
2022-12-12T20:30:12.235Z,25.26
2022-12-12T20:32:48.882Z,25.24
2022-12-12T20:35:19.940Z,25.23
2022-12-12T20:37:50.532Z,25.22
2022-12-12T20:40:24.032Z,25.21
2022-12-12T20:43:01.633Z,25.20
2022-12-12T20:45:38.958Z,25.20
2022-12-12T20:48:13.997Z,25.18
2022-12-12T20:50:48.347Z,25.18
2022-12-12T20:53:18.669Z,25.15
2022-12-12T20:55:48.670Z,25.14
2022-12-12T20:58:18.771Z,25.12
2022-12-12T21:00:49.138Z,25.12
2022-12-12T21:03:21.649Z,25.11
2022-12-12T21:05:55.450Z,25.09
2022-12-12T21:08:28.297Z,25.09
2022-12-12T21:10:59.155Z,25.07
2022-12-12T21:13:29.716Z,25.06
2022-12-12T21:16:02.596Z,25.05
2022-12-12T21:18:35.456Z,25.03
2022-12-12T21:21:06.814Z,25.01
2022-12-12T21:23:37.716Z,25.02
2022-12-12T21:26:09.598Z,25.01
2022-12-12T21:28:43.971Z,24.99
2022-12-12T21:31:19.605Z,24.98
2022-12-12T21:33:58.123Z,24.98
2022-12-12T21:36:31.983Z,24.97
2022-12-12T21:39:06.274Z,24.96
2022-12-12T21:41:39.070Z,24.95
2022-12-12T21:44:10.376Z,24.93
2022-12-12T21:46:43.709Z,24.93
2022-12-12T21:49:28.137Z,24.92
2022-12-12T21:52:03.752Z,24.91
2022-12-12T21:54:34.340Z,24.90
2022-12-12T21:57:08.268Z,24.90
2022-12-12T21:59:39.259Z,24.89
2022-12-12T22:02:11.228Z,24.89
2022-12-12T22:04:45.290Z,24.89
2022-12-12T22:07:16.395Z,24.87
2022-12-12T22:09:58.156Z,24.87
2022-12-12T22:12:44.111Z,24.85
2022-12-12T22:15:28.613Z,24.84
2022-12-12T22:17:59.777Z,24.84
2022-12-12T22:20:37.042Z,24.84
2022-12-12T22:23:08.860Z,24.82
2022-12-12T22:25:39.805Z,24.79
2022-12-12T22:28:11.064Z,24.79
2022-12-12T22:30:42.716Z,24.78
2022-12-12T22:33:14.258Z,24.76
2022-12-12T22:35:46.462Z,24.77
2022-12-12T22:38:16.531Z,24.77
2022-12-12T22:40:59.353Z,24.76
2022-12-12T22:43:30.332Z,24.76
2022-12-12T22:46:08.016Z,24.76
2022-12-12T22:48:40.928Z,24.75
2022-12-12T22:51:23.528Z,24.76
2022-12-12T22:53:57.064Z,24.75
2022-12-12T22:56:30.743Z,24.74
2022-12-12T22:59:01.385Z,24.75
2022-12-12T23:01:32.895Z,24.75
2022-12-12T23:04:03.731Z,24.75
2022-12-12T23:06:38.719Z,24.75
2022-12-12T23:09:16.357Z,24.74
2022-12-12T23:12:01.040Z,24.75
2022-12-12T23:14:31.196Z,24.74
2022-12-12T23:17:03.880Z,24.74
2022-12-12T23:19:33.833Z,24.74
2022-12-12T23:22:05.485Z,24.73
2022-12-12T23:24:35.904Z,24.73
2022-12-12T23:27:06.523Z,24.73
2022-12-12T23:29:38.545Z,24.72
2022-12-12T23:32:09.255Z,24.71
2022-12-12T23:34:39.539Z,24.71
2022-12-12T23:37:26.159Z,24.71
2022-12-12T23:39:56.234Z,24.70
2022-12-12T23:42:26.305Z,24.69
2022-12-12T23:44:56.585Z,24.68
2022-12-12T23:47:29.843Z,24.68
2022-12-12T23:50:03.267Z,24.68
2022-12-12T23:52:35.664Z,24.67
2022-12-12T23:55:06.843Z,24.68
2022-12-12T23:57:36.854Z,24.66
